AEE220 LGSK-LGAV
Flight info
| Callsign | AEE220 |
|---|---|
| Flight time | 0h 34m |
| Altitude | 15000 |
| Route | SIGFO M749 ROPOX |
| Aircraft | A320/M-SDE3FGHIRWY/LB1 |
Departure
| Time | 2026-05-04 15:27 |
|---|---|
| Airport | Skiathos Island National Airport (LGSK) |
Arrival
| Time | 2026-05-04 16:01 |
|---|---|
| Airport | Athens Eleftherios Venizelos International Airport (LGAV) |
| Time | Latitude | Longitude | Altitude | Speed | Heading |
|---|---|---|---|---|---|
| 2026-05-04 15:10 | 39.17989 | 23.50272 | 39 ft | 0 kts | 289° |
| 2026-05-04 15:19 | 39.17975 | 23.50317 | 38 ft | 4 kts | 302° |
| 2026-05-04 15:19 | 39.17958 | 23.50343 | 38 ft | 4 kts | 329° |
| 2026-05-04 15:19 | 39.17936 | 23.50348 | 39 ft | 1 kts | 19° |
| 2026-05-04 15:23 | 39.17937 | 23.50352 | 40 ft | 0 kts | 48° |
| 2026-05-04 15:23 | 39.17933 | 23.50377 | 41 ft | 5 kts | 105° |
| 2026-05-04 15:24 | 39.18018 | 23.50504 | 47 ft | 15 kts | 19° |
| 2026-05-04 15:24 | 39.18268 | 23.50616 | 57 ft | 23 kts | 19° |
| 2026-05-04 15:25 | 39.18433 | 23.50690 | 61 ft | 26 kts | 19° |
| 2026-05-04 15:25 | 39.18524 | 23.50702 | 59 ft | 12 kts | 42° |
| 2026-05-04 15:25 | 39.18485 | 23.50736 | 57 ft | 8 kts | 242° |
| 2026-05-04 15:26 | 39.18448 | 23.50696 | 61 ft | 4 kts | 201° |
| 2026-05-04 15:26 | 39.18143 | 23.50560 | 52 ft | 93 kts | 199° |
| 2026-05-04 15:26 | 39.16157 | 23.49706 | 597 ft | 172 kts | 199° |
| 2026-05-04 15:27 | 39.15039 | 23.49205 | 1576 ft | 168 kts | 202° |
| 2026-05-04 15:27 | 39.12681 | 23.48138 | 2827 ft | 194 kts | 202° |
| 2026-05-04 15:28 | 39.09885 | 23.46882 | 3836 ft | 220 kts | 202° |
| 2026-05-04 15:28 | 39.08426 | 23.46238 | 4563 ft | 224 kts | 201° |
| 2026-05-04 15:28 | 39.05468 | 23.47057 | 5895 ft | 232 kts | 127° |
| 2026-05-04 15:29 | 39.04782 | 23.48874 | 6591 ft | 228 kts | 96° |
| 2026-05-04 15:30 | 38.99274 | 23.54036 | 8844 ft | 299 kts | 175° |
| 2026-05-04 15:30 | 38.92861 | 23.54891 | 10730 ft | 329 kts | 170° |
| 2026-05-04 15:31 | 38.88485 | 23.55989 | 12722 ft | 317 kts | 166° |
| 2026-05-04 15:31 | 38.86326 | 23.56615 | 13497 ft | 319 kts | 165° |
| 2026-05-04 15:32 | 38.79709 | 23.58571 | 15057 ft | 340 kts | 165° |
| 2026-05-04 15:32 | 38.74768 | 23.60007 | 15129 ft | 388 kts | 165° |
| 2026-05-04 15:33 | 38.69323 | 23.61557 | 15126 ft | 406 kts | 166° |
| 2026-05-04 15:34 | 38.61951 | 23.63646 | 15129 ft | 408 kts | 166° |
| 2026-05-04 15:34 | 38.59181 | 23.64435 | 15127 ft | 408 kts | 166° |
| 2026-05-04 15:34 | 38.53647 | 23.66014 | 15130 ft | 407 kts | 166° |
| 2026-05-04 15:35 | 38.48111 | 23.67590 | 15126 ft | 408 kts | 166° |
| 2026-05-04 15:35 | 38.45338 | 23.68378 | 15124 ft | 408 kts | 166° |
| 2026-05-04 15:35 | 38.42566 | 23.69165 | 15131 ft | 408 kts | 166° |
| 2026-05-04 15:36 | 38.37067 | 23.70619 | 15119 ft | 390 kts | 174° |
| 2026-05-04 15:36 | 38.34394 | 23.70498 | 15129 ft | 383 kts | 185° |
| 2026-05-04 15:36 | 38.31781 | 23.70154 | 15122 ft | 382 kts | 185° |
| 2026-05-04 15:37 | 38.29152 | 23.69795 | 15025 ft | 374 kts | 185° |
| 2026-05-04 15:37 | 38.26590 | 23.69442 | 14217 ft | 368 kts | 185° |
| 2026-05-04 15:37 | 38.24059 | 23.69094 | 13299 ft | 365 kts | 185° |
| 2026-05-04 15:37 | 38.21549 | 23.68793 | 12407 ft | 360 kts | 182° |
| 2026-05-04 15:38 | 38.19059 | 23.68703 | 11580 ft | 356 kts | 181° |
| 2026-05-04 15:38 | 38.16595 | 23.68667 | 11216 ft | 354 kts | 180° |
| 2026-05-04 15:38 | 38.14144 | 23.68644 | 10626 ft | 350 kts | 180° |
| 2026-05-04 15:38 | 38.11743 | 23.68638 | 10168 ft | 334 kts | 180° |
| 2026-05-04 15:39 | 38.09499 | 23.68645 | 9993 ft | 313 kts | 180° |
| 2026-05-04 15:39 | 38.07353 | 23.68655 | 9506 ft | 304 kts | 180° |
| 2026-05-04 15:39 | 38.03117 | 23.68724 | 8082 ft | 307 kts | 180° |
| 2026-05-04 15:40 | 38.00972 | 23.68784 | 7331 ft | 309 kts | 180° |
| 2026-05-04 15:40 | 37.98815 | 23.68859 | 6583 ft | 310 kts | 180° |
| 2026-05-04 15:40 | 37.96686 | 23.68946 | 5821 ft | 311 kts | 180° |
| 2026-05-04 15:40 | 37.94525 | 23.69026 | 5061 ft | 310 kts | 180° |
| 2026-05-04 15:41 | 37.92370 | 23.69078 | 4287 ft | 309 kts | 180° |
| 2026-05-04 15:41 | 37.90424 | 23.69110 | 3594 ft | 307 kts | 180° |
| 2026-05-04 15:41 | 37.88313 | 23.69126 | 3124 ft | 295 kts | 180° |
| 2026-05-04 15:41 | 37.86339 | 23.69133 | 3000 ft | 274 kts | 180° |
| 2026-05-04 15:42 | 37.84440 | 23.69142 | 3003 ft | 272 kts | 180° |
| 2026-05-04 15:42 | 37.82552 | 23.69239 | 3001 ft | 272 kts | 168° |
| 2026-05-04 15:42 | 37.80850 | 23.70207 | 3004 ft | 266 kts | 139° |
| 2026-05-04 15:42 | 37.79654 | 23.71827 | 2995 ft | 239 kts | 127° |
| 2026-05-04 15:43 | 37.78679 | 23.73406 | 2999 ft | 220 kts | 126° |
| 2026-05-04 15:43 | 37.77756 | 23.74939 | 3001 ft | 219 kts | 125° |
| 2026-05-04 15:43 | 37.76848 | 23.76479 | 3006 ft | 218 kts | 120° |
| 2026-05-04 15:43 | 37.76424 | 23.78254 | 3060 ft | 213 kts | 87° |
| 2026-05-04 15:44 | 37.76631 | 23.80169 | 3024 ft | 239 kts | 68° |
| 2026-05-04 15:44 | 37.77656 | 23.81832 | 3007 ft | 240 kts | 29° |
| 2026-05-04 15:44 | 37.79180 | 23.82379 | 3004 ft | 221 kts | 4° |
| 2026-05-04 15:44 | 37.80603 | 23.82858 | 2993 ft | 207 kts | 34° |
| 2026-05-04 15:45 | 37.81585 | 23.84065 | 3015 ft | 188 kts | 40° |
| 2026-05-04 15:45 | 37.82596 | 23.85081 | 2778 ft | 185 kts | 34° |
| 2026-05-04 15:45 | 37.83622 | 23.86044 | 2547 ft | 177 kts | 34° |
| 2026-05-04 15:45 | 37.84551 | 23.86922 | 2324 ft | 157 kts | 34° |
| 2026-05-04 15:46 | 37.85380 | 23.87707 | 2119 ft | 142 kts | 34° |
| 2026-05-04 15:46 | 37.86153 | 23.88438 | 1934 ft | 137 kts | 34° |
| 2026-05-04 15:46 | 37.86905 | 23.89151 | 1756 ft | 133 kts | 35° |
| 2026-05-04 15:46 | 37.87648 | 23.89855 | 1569 ft | 133 kts | 34° |
| 2026-05-04 15:47 | 37.88391 | 23.90560 | 1403 ft | 133 kts | 34° |
| 2026-05-04 15:47 | 37.89119 | 23.91250 | 1203 ft | 132 kts | 35° |
| 2026-05-04 15:47 | 37.89860 | 23.91954 | 1008 ft | 133 kts | 38° |
| 2026-05-04 15:47 | 37.90607 | 23.92652 | 757 ft | 133 kts | 39° |
| 2026-05-04 15:48 | 37.91349 | 23.93354 | 580 ft | 135 kts | 40° |
| 2026-05-04 15:48 | 37.92089 | 23.94074 | 406 ft | 134 kts | 40° |
| 2026-05-04 15:48 | 37.93606 | 23.95521 | 547 ft | 145 kts | 41° |
| 2026-05-04 15:49 | 37.94434 | 23.96340 | 1175 ft | 161 kts | 38° |
| 2026-05-04 15:49 | 37.95270 | 23.97248 | 1738 ft | 147 kts | 39° |
| 2026-05-04 15:49 | 37.95992 | 23.98102 | 2278 ft | 139 kts | 40° |
| 2026-05-04 15:49 | 37.96588 | 23.99048 | 2794 ft | 143 kts | 69° |
| 2026-05-04 15:50 | 37.96495 | 24.00312 | 3205 ft | 153 kts | 121° |
| 2026-05-04 15:50 | 37.95660 | 24.01108 | 3641 ft | 156 kts | 171° |
| 2026-05-04 15:50 | 37.94615 | 24.00959 | 4108 ft | 151 kts | 200° |
| 2026-05-04 15:50 | 37.93516 | 24.00460 | 4152 ft | 188 kts | 204° |
| 2026-05-04 15:51 | 37.92170 | 23.99763 | 4053 ft | 233 kts | 205° |
| 2026-05-04 15:51 | 37.90551 | 23.98893 | 3993 ft | 265 kts | 205° |
| 2026-05-04 15:51 | 37.88840 | 23.97957 | 4008 ft | 272 kts | 205° |
| 2026-05-04 15:51 | 37.87094 | 23.97004 | 4011 ft | 272 kts | 205° |
| 2026-05-04 15:52 | 37.85376 | 23.96069 | 4008 ft | 271 kts | 205° |
| 2026-05-04 15:52 | 37.83642 | 23.95121 | 4011 ft | 272 kts | 205° |
| 2026-05-04 15:52 | 37.81880 | 23.94159 | 4009 ft | 272 kts | 205° |
| 2026-05-04 15:52 | 37.80167 | 23.93216 | 4009 ft | 273 kts | 205° |
| 2026-05-04 15:53 | 37.78437 | 23.92260 | 4008 ft | 273 kts | 205° |
| 2026-05-04 15:53 | 37.76686 | 23.91297 | 4007 ft | 273 kts | 205° |
| 2026-05-04 15:53 | 37.74945 | 23.90341 | 4004 ft | 273 kts | 206° |
| 2026-05-04 15:53 | 37.73375 | 23.89055 | 4001 ft | 268 kts | 230° |
| 2026-05-04 15:54 | 37.72440 | 23.87096 | 3607 ft | 258 kts | 257° |
| 2026-05-04 15:54 | 37.72326 | 23.84925 | 3344 ft | 238 kts | 281° |
| 2026-05-04 15:54 | 37.72836 | 23.83054 | 3214 ft | 216 kts | 303° |
| 2026-05-04 15:54 | 37.73765 | 23.81679 | 3100 ft | 199 kts | 323° |
| 2026-05-04 15:55 | 37.74933 | 23.80849 | 3028 ft | 185 kts | 341° |
| 2026-05-04 15:55 | 37.76120 | 23.80562 | 2994 ft | 164 kts | 358° |
| 2026-05-04 15:55 | 37.77217 | 23.80703 | 2993 ft | 156 kts | 13° |
| 2026-05-04 15:55 | 37.78218 | 23.81195 | 2998 ft | 154 kts | 27° |
| 2026-05-04 15:56 | 37.79084 | 23.81896 | 3012 ft | 144 kts | 30° |
| 2026-05-04 15:56 | 37.79901 | 23.82588 | 3006 ft | 140 kts | 32° |
| 2026-05-04 15:56 | 37.80692 | 23.83298 | 3009 ft | 139 kts | 33° |
| 2026-05-04 15:56 | 37.81475 | 23.84021 | 2966 ft | 141 kts | 34° |
| 2026-05-04 15:57 | 37.82290 | 23.84782 | 2838 ft | 151 kts | 33° |
| 2026-05-04 15:57 | 37.83096 | 23.85543 | 2649 ft | 136 kts | 34° |
| 2026-05-04 15:57 | 37.83837 | 23.86243 | 2490 ft | 135 kts | 34° |
| 2026-05-04 15:57 | 37.84595 | 23.86959 | 2314 ft | 137 kts | 34° |
| 2026-05-04 15:58 | 37.85355 | 23.87680 | 2129 ft | 136 kts | 35° |
| 2026-05-04 15:58 | 37.86114 | 23.88399 | 1944 ft | 137 kts | 34° |
| 2026-05-04 15:58 | 37.86870 | 23.89116 | 1770 ft | 135 kts | 36° |
| 2026-05-04 15:58 | 37.87623 | 23.89830 | 1574 ft | 135 kts | 34° |
| 2026-05-04 15:59 | 37.88378 | 23.90546 | 1405 ft | 135 kts | 35° |
| 2026-05-04 15:59 | 37.89128 | 23.91258 | 1201 ft | 135 kts | 35° |
| 2026-05-04 15:59 | 37.89879 | 23.91972 | 1007 ft | 135 kts | 38° |
| 2026-05-04 15:59 | 37.90631 | 23.92685 | 812 ft | 135 kts | 40° |
| 2026-05-04 16:00 | 37.91371 | 23.93389 | 631 ft | 136 kts | 40° |
| 2026-05-04 16:00 | 37.92136 | 23.94118 | 435 ft | 134 kts | 40° |
| 2026-05-04 16:00 | 37.92879 | 23.94822 | 300 ft | 129 kts | 40° |
| 2026-05-04 16:00 | 37.93441 | 23.95364 | 291 ft | 83 kts | 37° |
| 2026-05-04 16:01 | 37.93813 | 23.95704 | 279 ft | 24 kts | 27° |
| 2026-05-04 16:01 | 37.93887 | 23.95711 | 280 ft | 9 kts | 9° |
| 2026-05-04 16:01 | 37.93938 | 23.95721 | 284 ft | 2 kts | 7° |
| 2026-05-04 16:01 | 37.93952 | 23.95723 | 285 ft | 2 kts | 6° |
| 2026-05-04 16:02 | 37.93963 | 23.95724 | 286 ft | 1 kts | 5° |
| 2026-05-04 16:02 | 37.93976 | 23.95726 | 287 ft | 3 kts | 7° |
| 2026-05-04 16:02 | 37.94044 | 23.95700 | 296 ft | 8 kts | 301° |
| 2026-05-04 16:03 | 37.94014 | 23.95626 | 298 ft | 15 kts | 217° |
| 2026-05-04 16:03 | 37.93908 | 23.95525 | 298 ft | 24 kts | 216° |
| 2026-05-04 16:03 | 37.93852 | 23.95421 | 298 ft | 10 kts | 291° |
| 2026-05-04 16:03 | 37.93886 | 23.95319 | 300 ft | 17 kts | 263° |
| 2026-05-04 16:04 | 37.93863 | 23.95238 | 301 ft | 10 kts | 248° |
| 2026-05-04 16:04 | 37.93824 | 23.95081 | 303 ft | 5 kts | 307° |
| 2026-05-04 16:04 | 37.93836 | 23.95060 | 301 ft | 0 kts | 307° |